www.nordhorn-wetter.com
Wetterdaten: aktuell Sonntag, 06.09.2026 23:46
Datum Zeit Temp. A. BodenT -5cm Temp +10cm Extra Temp Feuchte A. BlattFeuchte Bod.Feu -5cm Luftdruck Regen Wind Richtung Richtung Sonnenschein ET UV Solar Taupunkt Windböen Empfang
06.09.2026 23:46 15,4 °C 0,0 °C 20,0 °C 19,0 °C 77 % 0 lf 28 cb 1019,8 hPa 0,0 mm 0,0 km/h (0 Bft) SO 132 ° 0 min 0,000 mm 0,0 UV-I 0 W/m² 11,4 °C 0,0 km/h (0 Bft) 100,00 %
06.09.2026 22:46 16,1 °C 0,0 °C 20,0 °C 19,0 °C 75 % 0 lf 28 cb 1020,3 hPa 0,0 mm 0,0 km/h (0 Bft) SO 130 ° 0 min 0,025 mm 0,0 UV-I 0 W/m² 11,7 °C 0,0 km/h (0 Bft) 100,00 %
06.09.2026 21:46 16,2 °C 0,0 °C 20,0 °C 19,0 °C 76 % 0 lf 28 cb 1021,0 hPa 0,0 mm 3,1 km/h (1 Bft) O 95 ° 0 min 0,026 mm 0,0 UV-I 0 W/m² 12,0 °C 4,8 km/h (1 Bft) 95,83 %
06.09.2026 20:46 18,2 °C 0,0 °C 20,0 °C 19,0 °C 68 % 0 lf 28 cb 1021,6 hPa 0,0 mm 3,0 km/h (1 Bft) O 101 ° 0 min 0,051 mm 0,0 UV-I 0 W/m² 12,2 °C 4,8 km/h (1 Bft) 100,00 %
06.09.2026 19:46 19,7 °C 0,0 °C 20,6 °C 19,0 °C 62 % 0 lf 28 cb 1022,0 hPa 0,0 mm 0,0 km/h (0 Bft) SO 126 ° 11 min 0,101 mm 0,0 UV-I 22 W/m² 12,2 °C 0,0 km/h (0 Bft) 100,00 %
06.09.2026 18:46 20,4 °C 0,0 °C 21,1 °C 19,0 °C 58 % 0 lf 27 cb 1022,3 hPa 0,0 mm 4,8 km/h (1 Bft) SO 134 ° 31 min 0,178 mm 0,0 UV-I 39 W/m² 11,9 °C 8,0 km/h (2 Bft) 100,00 %
06.09.2026 17:46 21,3 °C 0,0 °C 21,7 °C 19,0 °C 55 % 0 lf 26 cb 1022,6 hPa 0,0 mm 5,8 km/h (2 Bft) S 174 ° 43 min 0,229 mm 0,9 UV-I 172 W/m² 11,9 °C 8,0 km/h (2 Bft) 91,67 %
06.09.2026 16:46 20,9 °C 0,0 °C 21,7 °C 19,0 °C 57 % 0 lf 25 cb 1023,1 hPa 0,0 mm 3,4 km/h (1 Bft) S 171 ° 10 min 0,203 mm 1,6 UV-I 241 W/m² 12,1 °C 9,7 km/h (2 Bft) 100,00 %
06.09.2026 15:46 21,8 °C 0,0 °C 22,2 °C 18,4 °C 56 % 0 lf 24 cb 1023,7 hPa 0,0 mm 6,1 km/h (2 Bft) S-SW 197 ° 60 min 0,000 mm 3,2 UV-I 623 W/m² 12,6 °C 14,5 km/h (3 Bft) 95,83 %
06.09.2026 14:46 21,6 °C 0,0 °C 21,1 °C 17,9 °C 60 % 0 lf 23 cb 1024,3 hPa 0,0 mm 4,4 km/h (1 Bft) S 178 ° 59 min 0,000 mm 4,4 UV-I 821 W/m² 13,5 °C 6,4 km/h (2 Bft) 100,00 %
06.09.2026 13:46 20,9 °C 0,0 °C 20,0 °C 16,8 °C 61 % 0 lf 23 cb 1024,8 hPa 0,0 mm 3,8 km/h (1 Bft) SO 146 ° 60 min 0,000 mm 4,4 UV-I 420 W/m² 13,1 °C 6,4 km/h (2 Bft) 95,83 %
06.09.2026 12:46 20,7 °C 0,0 °C 18,3 °C 15,7 °C 64 % 0 lf 22 cb 1025,4 hPa 0,0 mm 2,5 km/h (1 Bft) O-SO 123 ° 60 min 0,000 mm 4,0 UV-I 676 W/m² 13,6 °C 4,8 km/h (1 Bft) 95,83 %
06.09.2026 11:46 18,6 °C 0,0 °C 16,7 °C 14,6 °C 70 % 0 lf 22 cb 1026,1 hPa 0,0 mm 0,4 km/h (0 Bft) W-NW 285 ° 55 min 0,000 mm 3,5 UV-I 669 W/m² 13,0 °C 1,6 km/h (1 Bft) 100,00 %
06.09.2026 10:46 17,3 °C 0,0 °C 15,0 °C 14,0 °C 74 % 0 lf 22 cb 1026,2 hPa 0,0 mm 5,8 km/h (2 Bft) SO 144 ° 60 min 0,000 mm 2,5 UV-I 489 W/m² 12,6 °C 8,0 km/h (2 Bft) 100,00 %
06.09.2026 09:44 14,7 °C 0,0 °C 13,9 °C 14,0 °C 82 % 0 lf 22 cb 1026,1 hPa 0,0 mm 2,7 km/h (1 Bft) W-SW 239 ° 60 min 0,000 mm 1,5 UV-I 353 W/m² 11,7 °C 3,2 km/h (1 Bft) 91,67 %
06.09.2026 08:44 11,6 °C 0,0 °C 13,9 °C 14,0 °C 91 % 0 lf 23 cb 1025,8 hPa 0,0 mm 0,1 km/h (0 Bft) W-SW 242 ° 38 min 0,000 mm 0,7 UV-I 202 W/m² 10,2 °C 1,6 km/h (1 Bft) 100,00 %
06.09.2026 07:44 9,1 °C 0,0 °C 17,8 °C 17,3 °C 96 % 0 lf 25 cb 1025,7 hPa 0,0 mm 0,6 km/h (0 Bft) W-SW 242 ° 0 min 0,000 mm 0,0 UV-I 60 W/m² 8,5 °C 1,6 km/h (1 Bft) 100,00 %
06.09.2026 06:44 8,9 °C 0,0 °C 17,8 °C 17,3 °C 96 % 0 lf 25 cb 1025,4 hPa 0,0 mm 0,0 km/h (0 Bft) W-SW 242 ° 0 min 0,000 mm 0,0 UV-I 0 W/m² 8,3 °C 0,0 km/h (0 Bft) 91,30 %
06.09.2026 05:44 9,1 °C 0,0 °C 17,8 °C 17,3 °C 95 % 0 lf 25 cb 1025,5 hPa 0,0 mm 0,0 km/h (0 Bft) W-SW 243 ° 0 min 0,000 mm 0,0 UV-I 0 W/m² 8,3 °C 0,0 km/h (0 Bft) 95,65 %
06.09.2026 04:44 9,4 °C 0,0 °C 17,8 °C 17,3 °C 95 % 0 lf 25 cb 1025,7 hPa 0,0 mm 0,0 km/h (0 Bft) W-SW 243 ° 0 min 0,000 mm 0,0 UV-I 0 W/m² 8,6 °C 0,0 km/h (0 Bft) 100,00 %
06.09.2026 03:44 9,9 °C 0,0 °C 17,8 °C 17,3 °C 94 % 0 lf 25 cb 1025,2 hPa 0,0 mm 0,0 km/h (0 Bft) W-SW 243 ° 0 min 0,000 mm 0,0 UV-I 0 W/m² 9,0 °C 0,0 km/h (0 Bft) 100,00 %
06.09.2026 02:44 10,3 °C 0,0 °C 17,8 °C 17,3 °C 93 % 0 lf 25 cb 1025,4 hPa 0,0 mm 1,9 km/h (1 Bft) W-SW 243 ° 0 min 0,000 mm 0,0 UV-I 0 W/m² 9,2 °C 3,2 km/h (1 Bft) 100,00 %
06.09.2026 01:44 10,4 °C 0,0 °C 17,8 °C 17,3 °C 92 % 0 lf 25 cb 1025,2 hPa 0,0 mm 0,0 km/h (0 Bft) W-SW 241 ° 0 min 0,000 mm 0,0 UV-I 0 W/m² 9,2 °C 0,0 km/h (0 Bft) 91,30 %
06.09.2026 00:44 11,1 °C 0,0 °C 17,8 °C 17,3 °C 91 % 0 lf 25 cb 1024,8 hPa 0,6 mm 0,0 km/h (0 Bft) W-SW 241 ° 0 min 2,235 mm 0,0 UV-I 0 W/m² 9,7 °C 0,0 km/h (0 Bft) 95,65 %
06.09.2026 00:00 11,6 °C 0,0 °C 17,8 °C 17,3 °C 90 % 0 lf 25 cb 1024,3 hPa 0,0 mm 3,0 km/h (1 Bft) W-SW 241 ° 0 min 0,000 mm 0,0 UV-I 0 W/m² 10,0 °C 4,8 km/h (1 Bft) 100,00 %
_ Min-Zeit 07:06 23:46 09:49 10:49 18:09 23:46 13:36 23:46 - 23:46 - - - - - - 07:03 23:46 06:00
Minimum _ 8,6 °C 0,0 °C 13,9 °C 14,0 °C 55 % 0 lf 22 cb 1019,8 hPa - 0,0 km/h (0 Bft) - - - - - - 7,9 °C 0,0 km/h (0 Bft) 78,26 %
_ Max-Zeit 14:34 23:46 16:31 23:46 08:10 23:46 23:46 11:06 00:02 14:12 - - 09:58 00:02 14:22 13:49 14:10 13:50 23:46
Maximum _ 22,3 °C 0,0 °C 22,2 °C 19,0 °C 96 % 0 lf 28 cb 1026,4 hPa 0,6 mm 13,1 km/h
S (3 Bft)
- - 3 min 2,235 mm 4,6 UV-I 837 W/m² 14,6 °C 22,5 km/h
S-SO (4 Bft)
100,00 %
Durchschnitt _ 15,5 °C 0,0 °C 18,7 °C 17,4 °C 77 % 0 lf 25 cb 1024,2 hPa #0,6 mm 2,6 km/h (1 Bft) W-SW - #9:09 h #3,048 mm 2,5 UV-I 368 W/m² 11,1 °C 4,6 km/h (1 Bft) 96,50 %
© 2006-2026 Nordhorn-Wetter.com